createdAt,value
2023-02-22T00:01:51.268Z,99346.53
2023-02-22T00:04:21.350Z,99346.72
2023-02-22T00:06:50.023Z,99364.16
2023-02-22T00:09:20.774Z,99349.78
2023-02-22T00:11:49.546Z,99359.38
2023-02-22T00:14:20.410Z,99353.03
2023-02-22T00:16:48.323Z,99350.09
2023-02-22T00:19:15.891Z,99348.66
2023-02-22T00:21:44.886Z,99350.75
2023-02-22T00:24:23.294Z,99350.78
2023-02-22T00:26:56.429Z,99345.16
2023-02-22T00:29:25.648Z,99353.50
2023-02-22T00:31:54.088Z,99350.38
2023-02-22T00:34:24.150Z,99348.00
2023-02-22T00:36:52.387Z,99354.78
2023-02-22T00:39:20.298Z,99354.66
2023-02-22T00:41:48.070Z,99353.34
2023-02-22T00:44:15.762Z,99357.19
2023-02-22T00:46:43.257Z,99359.41
2023-02-22T00:49:10.734Z,99352.66
2023-02-22T00:51:38.424Z,99355.94
2023-02-22T00:54:05.937Z,99361.16
2023-02-22T00:56:35.244Z,99351.59
2023-02-22T00:59:03.582Z,99349.34
2023-02-22T01:01:31.998Z,99351.72
2023-02-22T01:03:59.511Z,99350.13
2023-02-22T01:06:27.141Z,99357.69
2023-02-22T01:08:54.670Z,99356.88
2023-02-22T01:11:22.425Z,99355.03
2023-02-22T01:13:49.865Z,99351.81
2023-02-22T01:16:17.432Z,99346.09
2023-02-22T01:18:44.971Z,99347.31
2023-02-22T01:21:13.053Z,99351.03
2023-02-22T01:23:44.241Z,99359.50
2023-02-22T01:26:11.794Z,99357.50
2023-02-22T01:28:39.717Z,99348.09
2023-02-22T01:31:07.301Z,99348.41
2023-02-22T01:33:34.784Z,99352.72
2023-02-22T01:36:02.293Z,99347.16
2023-02-22T01:38:29.772Z,99346.38
2023-02-22T01:40:57.250Z,99352.72
2023-02-22T01:43:33.177Z,99343.16
2023-02-22T01:46:26.715Z,99346.38
2023-02-22T01:49:06.616Z,99341.00
2023-02-22T01:51:40.809Z,99344.06
2023-02-22T01:54:24.227Z,99341.00
2023-02-22T01:57:16.405Z,99350.25
2023-02-22T01:59:48.463Z,99348.38
2023-02-22T02:02:17.238Z,99337.75
2023-02-22T02:04:45.204Z,99335.88
2023-02-22T02:07:15.342Z,99344.69
2023-02-22T02:09:53.430Z,99343.63
2023-02-22T02:12:23.383Z,99346.41
2023-02-22T02:14:51.960Z,99345.94
2023-02-22T02:17:23.847Z,99344.56
2023-02-22T02:20:17.628Z,99347.47
2023-02-22T02:23:22.697Z,99351.59
2023-02-22T02:26:10.391Z,99358.34
2023-02-22T02:29:31.730Z,99359.25
2023-02-22T02:32:11.404Z,99361.31
2023-02-22T02:35:30.886Z,99366.06
2023-02-22T02:38:21.905Z,99360.75
2023-02-22T02:41:12.833Z,99365.78
2023-02-22T02:43:54.408Z,99371.56
2023-02-22T02:46:26.993Z,99379.25
2023-02-22T02:49:06.406Z,99373.09
2023-02-22T02:51:41.292Z,99381.56
2023-02-22T02:54:11.081Z,99376.63
2023-02-22T02:56:38.915Z,99384.50
2023-02-22T02:59:26.631Z,99381.25
2023-02-22T03:02:24.867Z,99376.66
2023-02-22T03:05:01.162Z,99373.06
2023-02-22T03:07:58.634Z,99374.31
2023-02-22T03:10:56.965Z,99375.66
2023-02-22T03:13:55.716Z,99373.91
2023-02-22T03:16:56.871Z,99367.91
2023-02-22T03:19:46.090Z,99369.25
2023-02-22T03:22:44.195Z,99361.88
2023-02-22T03:25:20.619Z,99368.25
2023-02-22T03:27:56.294Z,99380.88
2023-02-22T03:30:38.058Z,99371.88
2023-02-22T03:33:20.476Z,99374.72
2023-02-22T03:35:57.162Z,99366.94
2023-02-22T03:38:30.401Z,99383.97
2023-02-22T03:41:03.070Z,99386.94
2023-02-22T03:43:51.103Z,99380.88
2023-02-22T03:46:19.557Z,99386.91
2023-02-22T03:49:03.003Z,99396.78
2023-02-22T03:51:34.329Z,99402.44
2023-02-22T03:54:04.161Z,99392.72
2023-02-22T03:56:47.449Z,99396.78
2023-02-22T03:59:16.235Z,99391.56
2023-02-22T04:01:44.719Z,99382.72
2023-02-22T04:04:12.271Z,99388.22
2023-02-22T04:06:40.141Z,99388.38
2023-02-22T04:09:08.667Z,99407.41
2023-02-22T04:11:36.236Z,99398.88
2023-02-22T04:14:04.486Z,99395.41
2023-02-22T04:16:31.990Z,99401.75
2023-02-22T04:19:00.308Z,99399.81
2023-02-22T04:21:28.085Z,99403.28
2023-02-22T04:23:55.691Z,99405.97
2023-02-22T04:26:23.756Z,99402.25
2023-02-22T04:28:55.515Z,99411.56
2023-02-22T04:31:25.082Z,99402.25
2023-02-22T04:33:54.561Z,99396.75
2023-02-22T04:36:27.355Z,99402.69
2023-02-22T04:38:55.208Z,99402.16
2023-02-22T04:41:25.249Z,99398.19
2023-02-22T04:43:53.305Z,99404.78
2023-02-22T04:46:25.655Z,99408.13
2023-02-22T04:48:54.718Z,99406.28
2023-02-22T04:51:28.323Z,99407.84
2023-02-22T04:54:17.639Z,99408.00
2023-02-22T04:56:47.748Z,99401.16
2023-02-22T04:59:15.397Z,99397.78
2023-02-22T05:01:45.799Z,99403.53
2023-02-22T05:04:13.553Z,99414.78
2023-02-22T05:06:42.685Z,99418.72
2023-02-22T05:09:10.183Z,99412.44
2023-02-22T05:11:37.800Z,99409.81
2023-02-22T05:14:08.309Z,99413.22
2023-02-22T05:16:35.994Z,99402.88
2023-02-22T05:19:04.091Z,99413.22
2023-02-22T05:21:31.566Z,99408.41
2023-02-22T05:23:59.031Z,99410.72
2023-02-22T05:26:26.588Z,99409.06
2023-02-22T05:28:54.027Z,99417.56
2023-02-22T05:31:22.892Z,99422.38
2023-02-22T05:33:50.445Z,99429.19
2023-02-22T05:36:18.072Z,99425.47
2023-02-22T05:38:45.553Z,99426.88
2023-02-22T05:41:14.472Z,99433.97
2023-02-22T05:43:42.682Z,99434.44
2023-02-22T05:46:10.176Z,99437.38
2023-02-22T05:48:37.740Z,99449.66
2023-02-22T05:51:05.728Z,99451.69
2023-02-22T05:53:33.439Z,99453.41
2023-02-22T05:56:00.862Z,99456.19
2023-02-22T05:58:28.523Z,99464.69
2023-02-22T06:00:56.162Z,99455.78
2023-02-22T06:03:23.609Z,99467.19
2023-02-22T06:05:51.158Z,99461.63
2023-02-22T06:08:18.577Z,99464.88
2023-02-22T06:10:46.019Z,99467.03
2023-02-22T06:13:13.547Z,99469.63
2023-02-22T06:15:41.009Z,99473.34
2023-02-22T06:18:08.527Z,99474.75
2023-02-22T06:20:36.002Z,99474.03
2023-02-22T06:23:03.492Z,99470.19
2023-02-22T06:25:31.915Z,99467.56
2023-02-22T06:28:00.892Z,99467.84
2023-02-22T06:30:30.443Z,99470.63
2023-02-22T06:32:58.301Z,99477.91
2023-02-22T06:35:25.758Z,99479.84
2023-02-22T06:37:53.566Z,99478.91
2023-02-22T06:40:21.128Z,99484.28
2023-02-22T06:42:50.006Z,99475.66
2023-02-22T06:45:18.876Z,99479.84
2023-02-22T06:47:47.194Z,99481.75
2023-02-22T06:50:28.972Z,99477.84
2023-02-22T06:52:57.639Z,99476.16
2023-02-22T06:55:31.776Z,99485.91
2023-02-22T06:58:00.539Z,99482.06
2023-02-22T07:00:32.726Z,99485.97
2023-02-22T07:03:01.084Z,99488.00
2023-02-22T07:05:29.485Z,99478.75
2023-02-22T07:08:05.440Z,99481.31
2023-02-22T07:10:35.610Z,99490.44
2023-02-22T07:13:05.139Z,99477.19
2023-02-22T07:15:35.147Z,99474.44
2023-02-22T07:18:03.288Z,99478.56
2023-02-22T07:20:31.936Z,99478.41
2023-02-22T07:23:01.319Z,99480.69
2023-02-22T07:25:28.797Z,99471.63
2023-02-22T07:27:56.377Z,99479.63
2023-02-22T07:30:34.495Z,99472.84
2023-02-22T07:33:06.216Z,99465.75
2023-02-22T07:35:37.893Z,99470.25
2023-02-22T07:38:08.180Z,99478.09
2023-02-22T07:40:37.424Z,99478.84
2023-02-22T07:43:29.653Z,99475.63
2023-02-22T07:46:02.926Z,99477.25
2023-02-22T07:48:32.736Z,99475.13
2023-02-22T07:51:00.433Z,99469.56
2023-02-22T07:53:31.711Z,99470.84
2023-02-22T07:56:00.151Z,99472.91
2023-02-22T07:58:30.888Z,99459.09
2023-02-22T08:01:02.215Z,99461.59
2023-02-22T08:03:36.486Z,99458.38
2023-02-22T08:06:10.191Z,99460.72
2023-02-22T08:08:37.653Z,99459.22
2023-02-22T08:11:05.986Z,99461.75
2023-02-22T08:13:33.752Z,99459.44
2023-02-22T08:16:01.286Z,99459.16
2023-02-22T08:18:28.770Z,99456.44
2023-02-22T08:20:56.850Z,99456.84
2023-02-22T08:23:27.099Z,99463.47
2023-02-22T08:25:56.026Z,99448.69
2023-02-22T08:28:25.344Z,99453.94
2023-02-22T08:30:53.652Z,99445.38
2023-02-22T08:33:21.861Z,99444.41
2023-02-22T08:35:51.682Z,99439.81
2023-02-22T08:38:34.134Z,99441.88
2023-02-22T08:41:01.703Z,99446.88
2023-02-22T08:43:29.165Z,99437.44
2023-02-22T08:45:57.808Z,99448.47
2023-02-22T08:48:25.510Z,99446.56
2023-02-22T08:50:53.035Z,99446.78
2023-02-22T08:53:20.605Z,99438.44
2023-02-22T08:55:48.110Z,99432.44
2023-02-22T08:58:15.748Z,99436.53
2023-02-22T09:00:44.823Z,99441.50
2023-02-22T09:03:16.285Z,99433.03
2023-02-22T09:05:47.348Z,99437.47
2023-02-22T09:08:17.530Z,99432.34
2023-02-22T09:10:45.440Z,99433.63
2023-02-22T09:13:13.447Z,99432.78
2023-02-22T09:15:41.046Z,99436.47
2023-02-22T09:18:12.490Z,99430.53
2023-02-22T09:20:40.298Z,99430.59
2023-02-22T09:23:11.923Z,99424.25
2023-02-22T09:25:40.965Z,99421.53
2023-02-22T09:28:09.181Z,99421.91
2023-02-22T09:30:37.613Z,99418.66
2023-02-22T09:33:13.686Z,99419.41
2023-02-22T09:35:46.453Z,99410.63
2023-02-22T09:38:22.869Z,99409.53
2023-02-22T09:40:57.425Z,99411.13
2023-02-22T09:43:24.892Z,99413.47
2023-02-22T09:46:23.460Z,99414.22
2023-02-22T09:49:07.831Z,99409.66
2023-02-22T09:51:52.641Z,99412.72
2023-02-22T09:54:34.288Z,99403.19
2023-02-22T09:57:09.697Z,99407.78
2023-02-22T09:59:46.466Z,99397.47
2023-02-22T10:02:35.436Z,99395.94
2023-02-22T10:05:18.413Z,99395.97
2023-02-22T10:07:56.121Z,99399.00
2023-02-22T10:10:27.003Z,99386.41
2023-02-22T10:13:27.198Z,99384.84
2023-02-22T10:16:12.394Z,99383.69
2023-02-22T10:18:57.330Z,99389.72
2023-02-22T10:22:01.360Z,99374.81
2023-02-22T10:24:31.671Z,99369.53
2023-02-22T10:27:00.419Z,99368.69
2023-02-22T10:29:54.300Z,99356.16
2023-02-22T10:32:45.461Z,99355.28
2023-02-22T10:35:28.612Z,99350.75
2023-02-22T10:38:26.714Z,99346.84
2023-02-22T10:41:02.238Z,99345.66
2023-02-22T10:43:31.861Z,99341.47
2023-02-22T10:46:04.657Z,99341.88
2023-02-22T10:48:37.795Z,99329.22
2023-02-22T10:51:11.049Z,99328.69
2023-02-22T10:53:39.488Z,99322.31
2023-02-22T10:56:24.356Z,99323.69
2023-02-22T10:58:59.795Z,99310.94
2023-02-22T11:01:33.319Z,99312.28
2023-02-22T11:04:16.779Z,99316.16
2023-02-22T11:07:23.568Z,99312.03
2023-02-22T11:10:08.932Z,99309.59
2023-02-22T11:12:42.437Z,99306.25
2023-02-22T11:15:19.023Z,99303.25
2023-02-22T11:17:50.424Z,99291.22
2023-02-22T11:20:35.650Z,99285.00
2023-02-22T11:23:08.262Z,99292.56
2023-02-22T11:25:40.228Z,99280.31
2023-02-22T11:28:30.827Z,99285.16
2023-02-22T11:31:22.885Z,99278.78
2023-02-22T11:34:04.170Z,99276.28
2023-02-22T11:36:51.209Z,99272.44
2023-02-22T11:39:28.724Z,99272.91
2023-02-22T11:41:57.390Z,99266.63
2023-02-22T11:44:32.619Z,99269.84
2023-02-22T11:47:07.076Z,99254.47
2023-02-22T11:49:42.703Z,99251.81
2023-02-22T11:52:30.617Z,99247.97
2023-02-22T11:55:41.824Z,99244.09
2023-02-22T11:58:46.147Z,99242.88
2023-02-22T12:01:40.752Z,99249.59
2023-02-22T12:04:49.711Z,99243.78
2023-02-22T12:07:30.085Z,99238.66
2023-02-22T12:10:06.519Z,99230.97
2023-02-22T12:12:58.779Z,99231.34
2023-02-22T12:15:48.762Z,99222.34
2023-02-22T12:18:35.975Z,99230.78
2023-02-22T12:21:12.665Z,99229.41
2023-02-22T12:24:17.188Z,99212.72
2023-02-22T12:26:56.938Z,99213.00
2023-02-22T12:29:48.777Z,99216.22
2023-02-22T12:32:47.304Z,99206.09
2023-02-22T12:35:29.650Z,99207.34
2023-02-22T12:38:24.797Z,99203.59
2023-02-22T12:41:18.605Z,99206.13
2023-02-22T12:43:58.494Z,99203.47
2023-02-22T12:46:54.651Z,99195.16
2023-02-22T12:49:39.677Z,99195.53
2023-02-22T12:52:35.223Z,99200.56
2023-02-22T12:55:22.122Z,99196.06
2023-02-22T12:58:09.391Z,99191.84
2023-02-22T13:00:56.875Z,99198.25
2023-02-22T13:03:39.454Z,99196.00
2023-02-22T13:06:32.430Z,99187.50
2023-02-22T13:09:26.840Z,99187.88
2023-02-22T13:12:08.999Z,99185.94
2023-02-22T13:15:10.847Z,99188.13
2023-02-22T13:18:23.197Z,99192.66
2023-02-22T13:21:32.096Z,99191.00
2023-02-22T13:24:12.579Z,99184.78
2023-02-22T13:27:23.195Z,99179.47
2023-02-22T13:29:59.037Z,99183.41
2023-02-22T13:32:53.827Z,99180.72
2023-02-22T13:35:56.734Z,99185.69
2023-02-22T13:39:04.102Z,99181.66
2023-02-22T13:41:52.596Z,99180.16
2023-02-22T13:45:03.286Z,99175.78
2023-02-22T13:48:09.845Z,99171.31
2023-02-22T13:51:16.036Z,99172.25
2023-02-22T13:53:49.510Z,99174.81
2023-02-22T13:56:18.698Z,99166.06
2023-02-22T13:59:02.701Z,99177.69
2023-02-22T14:01:48.762Z,99175.66
2023-02-22T14:04:28.278Z,99173.72
2023-02-22T14:07:02.126Z,99172.19
2023-02-22T14:09:51.231Z,99178.00
2023-02-22T14:12:31.022Z,99179.50
2023-02-22T14:15:28.212Z,99173.50
2023-02-22T14:18:13.948Z,99169.00
2023-02-22T14:20:43.833Z,99172.13
2023-02-22T14:23:42.331Z,99172.59
2023-02-22T14:26:28.916Z,99173.59
2023-02-22T14:29:05.661Z,99169.78
2023-02-22T14:32:08.010Z,99173.91
2023-02-22T14:34:50.179Z,99167.91
2023-02-22T14:37:24.964Z,99162.28
2023-02-22T14:40:18.446Z,99161.34
2023-02-22T14:42:53.030Z,99164.00
2023-02-22T14:45:29.942Z,99165.22
2023-02-22T14:48:36.879Z,99150.38
2023-02-22T14:51:21.959Z,99153.22
2023-02-22T14:54:09.344Z,99160.00
2023-02-22T14:57:12.116Z,99159.28
2023-02-22T15:00:08.001Z,99163.00
2023-02-22T15:02:43.323Z,99159.00
2023-02-22T15:05:15.714Z,99154.41
2023-02-22T15:07:56.243Z,99152.63
2023-02-22T15:10:39.346Z,99152.16
2023-02-22T15:13:20.157Z,99157.44
2023-02-22T15:16:00.366Z,99165.03
2023-02-22T15:18:40.216Z,99156.84
2023-02-22T15:21:13.452Z,99157.75
2023-02-22T15:24:08.063Z,99156.22
2023-02-22T15:26:59.248Z,99160.69
2023-02-22T15:29:39.072Z,99157.25
2023-02-22T15:32:49.895Z,99154.31
2023-02-22T15:35:29.337Z,99152.03
2023-02-22T15:38:21.653Z,99153.47
2023-02-22T15:41:08.490Z,99144.81
2023-02-22T15:43:38.594Z,99142.81
2023-02-22T15:46:11.027Z,99142.25
2023-02-22T15:48:41.294Z,99144.34
2023-02-22T15:51:13.831Z,99142.63
2023-02-22T15:53:53.332Z,99145.97
2023-02-22T15:56:32.661Z,99146.28
2023-02-22T15:59:23.927Z,99155.72
2023-02-22T16:01:53.986Z,99154.97
2023-02-22T16:04:29.910Z,99152.00
2023-02-22T16:07:17.073Z,99152.31
2023-02-22T16:09:50.736Z,99158.69
2023-02-22T16:12:20.624Z,99150.34
2023-02-22T16:14:50.049Z,99155.44
2023-02-22T16:17:41.169Z,99156.59
2023-02-22T16:20:18.221Z,99166.94
2023-02-22T16:22:49.483Z,99163.13
2023-02-22T16:25:21.625Z,99166.94
2023-02-22T16:27:59.927Z,99170.72
2023-02-22T16:30:33.288Z,99169.19
2023-02-22T16:33:13.891Z,99178.59
2023-02-22T16:35:51.741Z,99185.13
2023-02-22T16:38:21.150Z,99188.88
2023-02-22T16:40:53.973Z,99195.19
2023-02-22T16:43:29.812Z,99189.03
2023-02-22T16:45:58.198Z,99196.88
2023-02-22T16:48:30.574Z,99199.44
2023-02-22T16:51:07.942Z,99207.84
2023-02-22T16:53:35.830Z,99212.63
2023-02-22T16:56:09.134Z,99214.44
2023-02-22T16:58:41.683Z,99217.44
2023-02-22T17:01:15.601Z,99215.25
2023-02-22T17:03:47.261Z,99228.66
2023-02-22T17:06:14.888Z,99221.75
2023-02-22T17:08:43.449Z,99217.91
2023-02-22T17:11:13.361Z,99227.81
2023-02-22T17:13:41.054Z,99228.34
2023-02-22T17:16:16.922Z,99229.56
2023-02-22T17:18:46.047Z,99226.91
2023-02-22T17:21:16.863Z,99226.81
2023-02-22T17:23:50.641Z,99228.72
2023-02-22T17:26:21.195Z,99228.16
2023-02-22T17:28:50.303Z,99234.47
2023-02-22T17:31:25.304Z,99237.00
2023-02-22T17:33:52.953Z,99233.38
2023-02-22T17:36:24.159Z,99237.19
2023-02-22T17:38:52.174Z,99240.31
2023-02-22T17:41:19.955Z,99236.50
2023-02-22T17:43:56.191Z,99235.63
2023-02-22T17:46:26.692Z,99233.41
2023-02-22T17:48:54.788Z,99232.78
2023-02-22T17:51:27.287Z,99238.09
2023-02-22T17:53:57.385Z,99231.13
2023-02-22T17:56:27.018Z,99231.19
2023-02-22T17:58:56.850Z,99235.53
2023-02-22T18:01:30.713Z,99234.28
2023-02-22T18:04:06.348Z,99230.34
2023-02-22T18:06:36.262Z,99226.00
2023-02-22T18:09:10.426Z,99230.19
2023-02-22T18:11:40.708Z,99227.75
2023-02-22T18:14:12.375Z,99228.31
2023-02-22T18:16:41.248Z,99236.56
2023-02-22T18:19:11.669Z,99243.81
2023-02-22T18:21:39.251Z,99242.25
2023-02-22T18:24:07.819Z,99240.25
2023-02-22T18:26:39.007Z,99245.56
2023-02-22T18:29:07.937Z,99245.38
2023-02-22T18:31:35.442Z,99240.28
2023-02-22T18:34:25.118Z,99240.72
2023-02-22T18:36:55.186Z,99238.84
2023-02-22T18:39:23.210Z,99241.13
2023-02-22T18:41:50.952Z,99246.34
2023-02-22T18:44:19.310Z,99242.34
2023-02-22T18:46:47.224Z,99247.44
2023-02-22T18:49:15.116Z,99254.19
2023-02-22T18:51:43.742Z,99279.59
2023-02-22T18:54:15.654Z,99289.00
2023-02-22T18:56:43.957Z,99285.31
2023-02-22T18:59:14.073Z,99292.38
2023-02-22T19:01:49.287Z,99289.28
2023-02-22T19:04:18.808Z,99281.25
2023-02-22T19:06:49.904Z,99289.38
2023-02-22T19:09:18.410Z,99288.47
2023-02-22T19:11:47.675Z,99292.13
2023-02-22T19:14:19.428Z,99284.72
2023-02-22T19:16:52.177Z,99287.97
2023-02-22T19:19:22.081Z,99298.81
2023-02-22T19:21:54.022Z,99297.81
2023-02-22T19:24:24.789Z,99298.69
2023-02-22T19:26:57.569Z,99301.38
2023-02-22T19:29:25.279Z,99302.25
2023-02-22T19:31:53.846Z,99311.47
2023-02-22T19:34:26.287Z,99317.63
2023-02-22T19:36:54.059Z,99311.72
2023-02-22T19:41:58.451Z,99318.34
2023-02-22T19:44:29.157Z,99315.94
2023-02-22T19:46:59.670Z,99323.34
2023-02-22T19:49:30.188Z,99326.97
2023-02-22T19:52:00.904Z,99324.34
2023-02-22T19:54:30.787Z,99331.38
2023-02-22T19:57:00.576Z,99345.06
2023-02-22T19:59:31.245Z,99369.13
2023-02-22T20:01:59.928Z,99360.25
2023-02-22T20:04:30.890Z,99365.38
2023-02-22T20:07:02.119Z,99362.31
2023-02-22T20:09:36.623Z,99365.41
2023-02-22T20:12:09.894Z,99373.59
2023-02-22T20:14:39.621Z,99378.41
2023-02-22T20:17:10.380Z,99389.28
2023-02-22T20:19:40.514Z,99394.94
2023-02-22T20:22:11.506Z,99398.56
2023-02-22T20:24:39.241Z,99400.09
2023-02-22T20:27:09.576Z,99400.59
2023-02-22T20:29:37.990Z,99411.63
2023-02-22T20:32:06.650Z,99418.38
2023-02-22T20:34:37.388Z,99419.97
2023-02-22T20:37:06.205Z,99417.25
2023-02-22T20:39:33.693Z,99423.84
2023-02-22T20:42:03.059Z,99420.53
2023-02-22T20:44:30.685Z,99428.25
2023-02-22T20:46:59.130Z,99421.94
2023-02-22T20:49:27.369Z,99413.34
2023-02-22T20:51:57.679Z,99418.41
2023-02-22T20:54:25.238Z,99413.78
2023-02-22T20:56:56.054Z,99421.59
2023-02-22T20:59:26.548Z,99418.34
2023-02-22T21:01:57.326Z,99418.69
2023-02-22T21:04:24.963Z,99423.81
2023-02-22T21:06:53.668Z,99427.69
2023-02-22T21:09:22.166Z,99428.88
2023-02-22T21:11:51.139Z,99426.25
2023-02-22T21:14:19.867Z,99424.97
2023-02-22T21:16:51.702Z,99425.69
2023-02-22T21:19:27.627Z,99426.16
2023-02-22T21:21:58.043Z,99430.34
2023-02-22T21:24:29.168Z,99422.22
2023-02-22T21:27:00.548Z,99434.41
2023-02-22T21:29:30.213Z,99438.47
2023-02-22T21:31:57.963Z,99428.28
2023-02-22T21:34:26.245Z,99431.13
2023-02-22T21:36:53.917Z,99429.25
2023-02-22T21:39:22.716Z,99435.75
2023-02-22T21:41:52.828Z,99438.34
2023-02-22T21:44:21.911Z,99438.97
2023-02-22T21:46:49.868Z,99440.22
2023-02-22T21:49:18.430Z,99439.78
2023-02-22T21:51:46.316Z,99435.75
2023-02-22T21:54:14.311Z,99447.63
2023-02-22T21:56:44.117Z,99441.88
2023-02-22T21:59:15.551Z,99444.03
2023-02-22T22:01:47.931Z,99443.13
2023-02-22T22:04:21.657Z,99443.91
2023-02-22T22:06:55.066Z,99452.69
2023-02-22T22:09:23.710Z,99455.31
2023-02-22T22:11:54.650Z,99451.13
2023-02-22T22:14:25.678Z,99464.56
2023-02-22T22:17:00.180Z,99457.00
2023-02-22T22:19:30.035Z,99458.72
2023-02-22T22:22:00.420Z,99467.81
2023-02-22T22:24:32.128Z,99468.41
2023-02-22T22:27:03.848Z,99463.84
2023-02-22T22:29:34.570Z,99461.50
2023-02-22T22:32:03.266Z,99455.81
2023-02-22T22:34:31.147Z,99464.22
2023-02-22T22:37:00.394Z,99465.69
2023-02-22T22:39:29.557Z,99460.44
2023-02-22T22:41:57.082Z,99468.94
2023-02-22T22:44:24.618Z,99473.88
2023-02-22T22:46:55.088Z,99471.38
2023-02-22T22:49:25.462Z,99483.56
2023-02-22T22:51:54.501Z,99479.25
2023-02-22T22:54:21.986Z,99483.22
2023-02-22T22:56:49.429Z,99472.03
2023-02-22T22:59:17.992Z,99470.69
2023-02-22T23:01:45.568Z,99464.28
2023-02-22T23:04:16.590Z,99471.88
2023-02-22T23:06:50.790Z,99465.75
2023-02-22T23:09:20.774Z,99470.16
2023-02-22T23:12:16.660Z,99474.28
2023-02-22T23:14:47.070Z,99474.66
2023-02-22T23:17:31.101Z,99476.41
2023-02-22T23:19:58.951Z,99483.88
2023-02-22T23:22:27.914Z,99482.00
2023-02-22T23:24:55.343Z,99489.44
2023-02-22T23:27:23.823Z,99487.53
2023-02-22T23:29:52.495Z,99494.81
2023-02-22T23:32:20.179Z,99494.69
2023-02-22T23:34:49.872Z,99494.50
2023-02-22T23:37:20.658Z,99496.94
2023-02-22T23:39:50.897Z,99501.56
2023-02-22T23:42:18.444Z,99504.09
2023-02-22T23:44:46.227Z,99505.25
2023-02-22T23:47:16.054Z,99509.22
2023-02-22T23:49:49.400Z,99501.19
2023-02-22T23:52:24.220Z,99508.84
2023-02-22T23:54:54.088Z,99506.72
2023-02-22T23:57:24.128Z,99507.47
2023-02-22T23:59:52.775Z,99506.81
